sensor_id;sensor_type;location;lat;lon;timestamp;pressure;altitude;pressure_sealevel;temperature;humidity
11049;BME280;5577;42.706;23.160;2023-02-20T00:02:31;94402.53;;;9.45;100.00
11049;BME280;5577;42.706;23.160;2023-02-20T00:05:16;94416.53;;;9.58;100.00
11049;BME280;5577;42.706;23.160;2023-02-20T00:08:00;94424.03;;;9.56;100.00
11049;BME280;5577;42.706;23.160;2023-02-20T00:10:44;94428.22;;;9.57;100.00
11049;BME280;5577;42.706;23.160;2023-02-20T00:13:28;94430.53;;;9.58;100.00
11049;BME280;5577;42.706;23.160;2023-02-20T00:16:12;94433.59;;;9.60;100.00
11049;BME280;5577;42.706;23.160;2023-02-20T00:18:56;94440.09;;;9.63;100.00
11049;BME280;5577;42.706;23.160;2023-02-20T00:21:47;94438.88;;;9.60;100.00
11049;BME280;5577;42.706;23.160;2023-02-20T00:24:32;94447.81;;;9.56;100.00
11049;BME280;5577;42.706;23.160;2023-02-20T00:27:16;94400.13;;;9.28;100.00
11049;BME280;5577;42.706;23.160;2023-02-20T00:30:00;94434.47;;;9.52;100.00
11049;BME280;5577;42.706;23.160;2023-02-20T00:32:46;94434.25;;;9.45;100.00
11049;BME280;5577;42.706;23.160;2023-02-20T00:35:30;94422.91;;;9.45;100.00
11049;BME280;5577;42.706;23.160;2023-02-20T00:38:14;94416.09;;;9.44;100.00
11049;BME280;5577;42.706;23.160;2023-02-20T00:40:59;94424.34;;;9.42;100.00
11049;BME280;5577;42.706;23.160;2023-02-20T00:43:43;94424.44;;;9.34;100.00
11049;BME280;5577;42.706;23.160;2023-02-20T00:46:27;94449.66;;;9.31;100.00
11049;BME280;5577;42.706;23.160;2023-02-20T00:49:11;94470.03;;;9.19;100.00
11049;BME280;5577;42.706;23.160;2023-02-20T00:51:55;94471.97;;;9.10;100.00
11049;BME280;5577;42.706;23.160;2023-02-20T00:54:39;94481.66;;;9.06;100.00
11049;BME280;5577;42.706;23.160;2023-02-20T00:57:23;94473.94;;;9.01;100.00
11049;BME280;5577;42.706;23.160;2023-02-20T01:00:15;94468.22;;;8.99;100.00
11049;BME280;5577;42.706;23.160;2023-02-20T01:02:59;94485.41;;;9.05;100.00
11049;BME280;5577;42.706;23.160;2023-02-20T01:05:43;94497.53;;;9.18;100.00
11049;BME280;5577;42.706;23.160;2023-02-20T01:08:27;94487.22;;;9.25;100.00
11049;BME280;5577;42.706;23.160;2023-02-20T01:11:11;94480.34;;;9.24;100.00
11049;BME280;5577;42.706;23.160;2023-02-20T01:13:55;94490.97;;;9.36;100.00
11049;BME280;5577;42.706;23.160;2023-02-20T01:16:44;94481.59;;;9.38;100.00
11049;BME280;5577;42.706;23.160;2023-02-20T01:19:29;94490.31;;;9.39;100.00
11049;BME280;5577;42.706;23.160;2023-02-20T01:22:13;94495.34;;;9.44;100.00
11049;BME280;5577;42.706;23.160;2023-02-20T01:24:56;94500.66;;;9.44;100.00
11049;BME280;5577;42.706;23.160;2023-02-20T01:27:40;94491.84;;;9.52;100.00
11049;BME280;5577;42.706;23.160;2023-02-20T01:30:24;94489.75;;;9.57;100.00
11049;BME280;5577;42.706;23.160;2023-02-20T01:33:08;94485.16;;;9.54;100.00
11049;BME280;5577;42.706;23.160;2023-02-20T01:35:52;94494.69;;;9.59;100.00
11049;BME280;5577;42.706;23.160;2023-02-20T01:38:39;94498.03;;;9.56;100.00
11049;BME280;5577;42.706;23.160;2023-02-20T01:41:23;94509.69;;;9.55;100.00
11049;BME280;5577;42.706;23.160;2023-02-20T01:44:17;94506.81;;;9.48;100.00
11049;BME280;5577;42.706;23.160;2023-02-20T01:47:07;94484.88;;;9.35;100.00
11049;BME280;5577;42.706;23.160;2023-02-20T01:50:01;94456.00;;;8.94;100.00
11049;BME280;5577;42.706;23.160;2023-02-20T01:52:52;94518.91;;;9.25;100.00
11049;BME280;5577;42.706;23.160;2023-02-20T01:55:44;94517.09;;;9.17;100.00
11049;BME280;5577;42.706;23.160;2023-02-20T01:58:39;94509.84;;;9.14;100.00
11049;BME280;5577;42.706;23.160;2023-02-20T02:01:24;94510.03;;;9.09;100.00
11049;BME280;5577;42.706;23.160;2023-02-20T02:04:09;94449.53;;;8.59;100.00
11049;BME280;5577;42.706;23.160;2023-02-20T02:06:55;94515.50;;;8.92;100.00
11049;BME280;5577;42.706;23.160;2023-02-20T02:09:53;94497.84;;;8.71;100.00
11049;BME280;5577;42.706;23.160;2023-02-20T02:12:39;94530.19;;;8.80;100.00
11049;BME280;5577;42.706;23.160;2023-02-20T02:15:24;94514.34;;;8.68;100.00
11049;BME280;5577;42.706;23.160;2023-02-20T02:19:13;94517.16;;;8.63;100.00
11049;BME280;5577;42.706;23.160;2023-02-20T02:24:42;94532.94;;;8.31;100.00
11049;BME280;5577;42.706;23.160;2023-02-20T02:31:08;94552.13;;;8.11;100.00
11049;BME280;5577;42.706;23.160;2023-02-20T02:40:53;94546.78;;;7.90;100.00
11049;BME280;5577;42.706;23.160;2023-02-20T02:46:40;94546.25;;;7.76;100.00
11049;BME280;5577;42.706;23.160;2023-02-20T02:49:35;94528.19;;;7.66;100.00
11049;BME280;5577;42.706;23.160;2023-02-20T02:52:22;94546.75;;;7.70;100.00
11049;BME280;5577;42.706;23.160;2023-02-20T02:55:30;94561.66;;;7.66;100.00
11049;BME280;5577;42.706;23.160;2023-02-20T02:58:17;94560.75;;;7.62;100.00
11049;BME280;5577;42.706;23.160;2023-02-20T03:01:01;94545.28;;;7.52;100.00
11049;BME280;5577;42.706;23.160;2023-02-20T03:03:47;94559.19;;;7.61;100.00
11049;BME280;5577;42.706;23.160;2023-02-20T03:06:36;94568.00;;;7.65;100.00
11049;BME280;5577;42.706;23.160;2023-02-20T03:09:34;94550.19;;;7.62;100.00
11049;BME280;5577;42.706;23.160;2023-02-20T03:12:21;94536.69;;;7.72;100.00
11049;BME280;5577;42.706;23.160;2023-02-20T03:15:09;94558.06;;;7.70;100.00
11049;BME280;5577;42.706;23.160;2023-02-20T03:18:34;94564.91;;;7.63;100.00
11049;BME280;5577;42.706;23.160;2023-02-20T03:21:21;94569.88;;;7.64;100.00
11049;BME280;5577;42.706;23.160;2023-02-20T03:24:08;94585.56;;;7.61;100.00
11049;BME280;5577;42.706;23.160;2023-02-20T03:26:55;94599.00;;;7.68;100.00
11049;BME280;5577;42.706;23.160;2023-02-20T03:29:41;94599.94;;;7.63;100.00
11049;BME280;5577;42.706;23.160;2023-02-20T03:32:26;94604.31;;;7.59;100.00
11049;BME280;5577;42.706;23.160;2023-02-20T03:35:33;94609.09;;;7.57;100.00
11049;BME280;5577;42.706;23.160;2023-02-20T03:38:39;94598.88;;;7.56;100.00
11049;BME280;5577;42.706;23.160;2023-02-20T03:41:43;94578.94;;;7.38;100.00
11049;BME280;5577;42.706;23.160;2023-02-20T03:44:48;94613.94;;;7.47;100.00
11049;BME280;5577;42.706;23.160;2023-02-20T03:47:35;94619.22;;;7.47;100.00
11049;BME280;5577;42.706;23.160;2023-02-20T03:50:20;94622.75;;;7.59;100.00
11049;BME280;5577;42.706;23.160;2023-02-20T03:53:04;94590.50;;;7.62;100.00
11049;BME280;5577;42.706;23.160;2023-02-20T03:55:50;94599.22;;;7.83;100.00
11049;BME280;5577;42.706;23.160;2023-02-20T03:58:38;94606.34;;;7.91;100.00
11049;BME280;5577;42.706;23.160;2023-02-20T04:01:25;94621.06;;;7.92;100.00
11049;BME280;5577;42.706;23.160;2023-02-20T04:04:13;94605.72;;;7.94;100.00
11049;BME280;5577;42.706;23.160;2023-02-20T04:07:00;94605.84;;;7.98;100.00
11049;BME280;5577;42.706;23.160;2023-02-20T04:09:47;94612.81;;;8.02;100.00
11049;BME280;5577;42.706;23.160;2023-02-20T04:12:35;94616.03;;;8.08;100.00
11049;BME280;5577;42.706;23.160;2023-02-20T04:15:21;94628.31;;;8.04;100.00
11049;BME280;5577;42.706;23.160;2023-02-20T04:18:09;94626.59;;;8.08;100.00
11049;BME280;5577;42.706;23.160;2023-02-20T04:20:55;94623.94;;;8.08;100.00
11049;BME280;5577;42.706;23.160;2023-02-20T04:23:44;94616.06;;;7.99;100.00
11049;BME280;5577;42.706;23.160;2023-02-20T04:26:30;94615.19;;;7.87;100.00
11049;BME280;5577;42.706;23.160;2023-02-20T04:29:15;94619.25;;;7.84;100.00
11049;BME280;5577;42.706;23.160;2023-02-20T04:31:59;94612.63;;;7.70;100.00
11049;BME280;5577;42.706;23.160;2023-02-20T04:34:43;94625.66;;;7.75;100.00
11049;BME280;5577;42.706;23.160;2023-02-20T04:37:28;94637.13;;;7.70;100.00
11049;BME280;5577;42.706;23.160;2023-02-20T04:40:13;94644.44;;;7.65;100.00
11049;BME280;5577;42.706;23.160;2023-02-20T04:42:58;94599.75;;;7.22;100.00
11049;BME280;5577;42.706;23.160;2023-02-20T04:45:42;94651.56;;;7.56;100.00
11049;BME280;5577;42.706;23.160;2023-02-20T04:48:26;94640.91;;;7.52;100.00
11049;BME280;5577;42.706;23.160;2023-02-20T04:51:10;94648.50;;;7.45;100.00
11049;BME280;5577;42.706;23.160;2023-02-20T04:53:54;94641.25;;;7.34;100.00
11049;BME280;5577;42.706;23.160;2023-02-20T04:56:38;94651.47;;;7.35;100.00
11049;BME280;5577;42.706;23.160;2023-02-20T04:59:21;94658.44;;;7.31;100.00
11049;BME280;5577;42.706;23.160;2023-02-20T05:02:05;94656.56;;;7.23;100.00
11049;BME280;5577;42.706;23.160;2023-02-20T05:04:49;94666.03;;;7.16;100.00
11049;BME280;5577;42.706;23.160;2023-02-20T05:07:33;94662.63;;;7.07;100.00
11049;BME280;5577;42.706;23.160;2023-02-20T05:10:19;94671.13;;;7.04;100.00
11049;BME280;5577;42.706;23.160;2023-02-20T05:13:03;94663.72;;;6.97;100.00
11049;BME280;5577;42.706;23.160;2023-02-20T05:15:47;94651.16;;;6.86;100.00
11049;BME280;5577;42.706;23.160;2023-02-20T05:18:31;94659.25;;;6.89;100.00
11049;BME280;5577;42.706;23.160;2023-02-20T05:21:15;94662.31;;;6.91;100.00
11049;BME280;5577;42.706;23.160;2023-02-20T05:24:18;94662.31;;;6.83;100.00
11049;BME280;5577;42.706;23.160;2023-02-20T05:27:03;94666.97;;;6.86;100.00
11049;BME280;5577;42.706;23.160;2023-02-20T05:29:52;94681.53;;;6.92;100.00
11049;BME280;5577;42.706;23.160;2023-02-20T05:32:37;94689.72;;;6.90;100.00
11049;BME280;5577;42.706;23.160;2023-02-20T05:35:21;94697.47;;;6.95;100.00
11049;BME280;5577;42.706;23.160;2023-02-20T05:38:05;94685.38;;;6.94;100.00
11049;BME280;5577;42.706;23.160;2023-02-20T05:40:48;94692.06;;;7.00;100.00
11049;BME280;5577;42.706;23.160;2023-02-20T05:43:32;94689.75;;;7.07;100.00
11049;BME280;5577;42.706;23.160;2023-02-20T05:46:16;94700.59;;;7.23;100.00
11049;BME280;5577;42.706;23.160;2023-02-20T05:49:00;94703.34;;;7.35;100.00
11049;BME280;5577;42.706;23.160;2023-02-20T05:51:44;94712.34;;;7.51;100.00
11049;BME280;5577;42.706;23.160;2023-02-20T05:54:28;94697.44;;;7.63;100.00
11049;BME280;5577;42.706;23.160;2023-02-20T05:57:12;94650.53;;;7.40;100.00
11049;BME280;5577;42.706;23.160;2023-02-20T05:59:57;94577.97;;;6.88;100.00
11049;BME280;5577;42.706;23.160;2023-02-20T06:02:41;94701.59;;;7.81;100.00
11049;BME280;5577;42.706;23.160;2023-02-20T06:05:25;94709.31;;;7.78;100.00
11049;BME280;5577;42.706;23.160;2023-02-20T06:08:11;94711.22;;;7.69;100.00
11049;BME280;5577;42.706;23.160;2023-02-20T06:10:55;94725.59;;;7.88;100.00
11049;BME280;5577;42.706;23.160;2023-02-20T06:13:40;94738.00;;;7.88;100.00
11049;BME280;5577;42.706;23.160;2023-02-20T06:16:26;94737.66;;;7.98;100.00
11049;BME280;5577;42.706;23.160;2023-02-20T06:19:11;94727.88;;;8.07;100.00
11049;BME280;5577;42.706;23.160;2023-02-20T06:22:00;94730.31;;;8.29;100.00
11049;BME280;5577;42.706;23.160;2023-02-20T06:24:46;94734.78;;;8.37;100.00
11049;BME280;5577;42.706;23.160;2023-02-20T06:27:30;94742.25;;;8.35;100.00
11049;BME280;5577;42.706;23.160;2023-02-20T06:30:15;94742.25;;;8.35;100.00
11049;BME280;5577;42.706;23.160;2023-02-20T06:32:59;94744.03;;;8.51;100.00
11049;BME280;5577;42.706;23.160;2023-02-20T06:35:43;94758.13;;;8.55;100.00
11049;BME280;5577;42.706;23.160;2023-02-20T06:38:27;94750.09;;;8.52;100.00
11049;BME280;5577;42.706;23.160;2023-02-20T06:41:11;94762.56;;;8.34;100.00
11049;BME280;5577;42.706;23.160;2023-02-20T06:43:55;94755.59;;;8.30;100.00
11049;BME280;5577;42.706;23.160;2023-02-20T06:46:39;94758.09;;;8.26;100.00
11049;BME280;5577;42.706;23.160;2023-02-20T06:49:23;94763.06;;;8.19;100.00
11049;BME280;5577;42.706;23.160;2023-02-20T06:52:07;94757.31;;;8.26;100.00
11049;BME280;5577;42.706;23.160;2023-02-20T06:54:51;94719.84;;;7.95;92.96
11049;BME280;5577;42.706;23.160;2023-02-20T06:57:37;94775.16;;;8.29;94.03
11049;BME280;5577;42.706;23.160;2023-02-20T07:00:21;94772.50;;;8.29;84.58
11049;BME280;5577;42.706;23.160;2023-02-20T07:03:05;94761.03;;;8.33;82.86
11049;BME280;5577;42.706;23.160;2023-02-20T07:05:49;94767.47;;;8.53;79.97
11049;BME280;5577;42.706;23.160;2023-02-20T07:08:33;94775.59;;;8.77;77.89
11049;BME280;5577;42.706;23.160;2023-02-20T07:11:19;94771.53;;;8.79;73.48
11049;BME280;5577;42.706;23.160;2023-02-20T07:14:04;94770.38;;;8.89;72.51
11049;BME280;5577;42.706;23.160;2023-02-20T07:16:48;94779.25;;;8.84;70.06
11049;BME280;5577;42.706;23.160;2023-02-20T07:19:32;94797.50;;;8.69;70.02
11049;BME280;5577;42.706;23.160;2023-02-20T07:22:16;94787.41;;;8.71;69.61
11049;BME280;5577;42.706;23.160;2023-02-20T07:25:00;94770.84;;;8.53;69.73
11049;BME280;5577;42.706;23.160;2023-02-20T07:27:44;94803.59;;;8.61;70.47
11049;BME280;5577;42.706;23.160;2023-02-20T07:30:29;94791.97;;;8.53;69.08
11049;BME280;5577;42.706;23.160;2023-02-20T07:33:12;94804.25;;;8.49;69.19
11049;BME280;5577;42.706;23.160;2023-02-20T07:35:56;94799.13;;;8.53;68.83
11049;BME280;5577;42.706;23.160;2023-02-20T07:38:41;94804.81;;;8.63;68.25
11049;BME280;5577;42.706;23.160;2023-02-20T07:41:27;94770.63;;;8.38;67.96
11049;BME280;5577;42.706;23.160;2023-02-20T07:44:15;94797.53;;;8.60;66.25
11049;BME280;5577;42.706;23.160;2023-02-20T07:46:59;94811.09;;;8.50;66.65
11049;BME280;5577;42.706;23.160;2023-02-20T07:49:43;94812.00;;;8.54;66.97
11049;BME280;5577;42.706;23.160;2023-02-20T07:52:27;94810.38;;;8.70;66.87
11049;BME280;5577;42.706;23.160;2023-02-20T07:55:15;94813.84;;;8.92;64.36
11049;BME280;5577;42.706;23.160;2023-02-20T07:57:59;94804.91;;;9.13;64.29
11049;BME280;5577;42.706;23.160;2023-02-20T08:00:43;94804.25;;;9.16;62.62
11049;BME280;5577;42.706;23.160;2023-02-20T08:03:28;94804.97;;;9.25;61.80
11049;BME280;5577;42.706;23.160;2023-02-20T08:06:15;94804.47;;;9.52;60.95
11049;BME280;5577;42.706;23.160;2023-02-20T08:08:59;94818.00;;;9.51;60.13
11049;BME280;5577;42.706;23.160;2023-02-20T08:11:43;94805.25;;;9.53;59.65
11049;BME280;5577;42.706;23.160;2023-02-20T08:14:28;94825.81;;;9.68;60.66
11049;BME280;5577;42.706;23.160;2023-02-20T08:17:12;94823.81;;;9.85;60.56
11049;BME280;5577;42.706;23.160;2023-02-20T08:19:56;94823.97;;;10.01;58.84
11049;BME280;5577;42.706;23.160;2023-02-20T08:22:40;94822.13;;;10.01;58.64
11049;BME280;5577;42.706;23.160;2023-02-20T08:25:23;94835.56;;;10.17;58.88
11049;BME280;5577;42.706;23.160;2023-02-20T08:28:07;94843.19;;;10.30;58.03
11049;BME280;5577;42.706;23.160;2023-02-20T08:30:51;94844.31;;;10.29;58.18
11049;BME280;5577;42.706;23.160;2023-02-20T08:33:35;94850.47;;;10.33;57.79
11049;BME280;5577;42.706;23.160;2023-02-20T08:36:19;94844.81;;;10.55;58.49
11049;BME280;5577;42.706;23.160;2023-02-20T08:39:03;94853.91;;;10.90;56.19
11049;BME280;5577;42.706;23.160;2023-02-20T08:41:47;94835.81;;;11.04;56.71
11049;BME280;5577;42.706;23.160;2023-02-20T08:44:31;94838.69;;;11.11;55.18
11049;BME280;5577;42.706;23.160;2023-02-20T08:47:19;94832.50;;;11.31;54.57
11049;BME280;5577;42.706;23.160;2023-02-20T08:50:03;94842.13;;;11.36;55.03
11049;BME280;5577;42.706;23.160;2023-02-20T08:52:48;94842.00;;;11.44;53.57
11049;BME280;5577;42.706;23.160;2023-02-20T08:55:31;94835.25;;;11.71;52.85
11049;BME280;5577;42.706;23.160;2023-02-20T08:58:23;94823.41;;;12.08;52.66
11049;BME280;5577;42.706;23.160;2023-02-20T09:01:07;94817.13;;;12.28;51.52
11049;BME280;5577;42.706;23.160;2023-02-20T09:03:51;94817.19;;;12.16;50.75
11049;BME280;5577;42.706;23.160;2023-02-20T09:06:36;94813.50;;;12.05;50.48
11049;BME280;5577;42.706;23.160;2023-02-20T09:09:20;94794.78;;;12.29;51.17
11049;BME280;5577;42.706;23.160;2023-02-20T09:12:05;94800.09;;;12.45;49.54
11049;BME280;5577;42.706;23.160;2023-02-20T09:14:49;94803.78;;;13.14;47.52
11049;BME280;5577;42.706;23.160;2023-02-20T09:17:33;94798.03;;;13.47;46.54
11049;BME280;5577;42.706;23.160;2023-02-20T09:20:18;94795.38;;;13.47;47.51
11049;BME280;5577;42.706;23.160;2023-02-20T09:23:04;94801.38;;;13.78;46.46
11049;BME280;5577;42.706;23.160;2023-02-20T09:25:49;94787.09;;;14.05;45.27
11049;BME280;5577;42.706;23.160;2023-02-20T09:28:33;94792.97;;;14.53;43.77
11049;BME280;5577;42.706;23.160;2023-02-20T09:31:17;94802.56;;;14.38;43.86
11049;BME280;5577;42.706;23.160;2023-02-20T09:34:01;94788.03;;;14.32;44.24
11049;BME280;5577;42.706;23.160;2023-02-20T09:36:47;94800.78;;;14.65;43.65
11049;BME280;5577;42.706;23.160;2023-02-20T09:39:31;94789.97;;;14.58;42.53
11049;BME280;5577;42.706;23.160;2023-02-20T09:45:15;94792.31;;;14.59;42.58
11049;BME280;5577;42.706;23.160;2023-02-20T09:51:16;94783.22;;;15.09;39.74
11049;BME280;5577;42.706;23.160;2023-02-20T09:57:22;94762.00;;;15.68;39.10
11049;BME280;5577;42.706;23.160;2023-02-20T10:00:13;94757.41;;;14.90;38.42
11049;BME280;5577;42.706;23.160;2023-02-20T10:03:14;94757.16;;;14.73;38.70
11049;BME280;5577;42.706;23.160;2023-02-20T10:06:13;94746.25;;;15.59;37.04
11049;BME280;5577;42.706;23.160;2023-02-20T10:08:58;94756.31;;;15.69;36.22
11049;BME280;5577;42.706;23.160;2023-02-20T10:21:40;94752.88;;;16.35;35.05
11049;BME280;5577;42.706;23.160;2023-02-20T10:30:19;94705.44;;;17.84;31.96
11049;BME280;5577;42.706;23.160;2023-02-20T10:35:58;94684.94;;;17.41;33.03
11049;BME280;5577;42.706;23.160;2023-02-20T10:38:50;94671.78;;;17.93;31.90
11049;BME280;5577;42.706;23.160;2023-02-20T10:41:49;94700.94;;;18.16;32.00
11049;BME280;5577;42.706;23.160;2023-02-20T10:47:39;94704.44;;;18.37;31.59
11049;BME280;5577;42.706;23.160;2023-02-20T10:53:54;94701.72;;;19.60;30.65
11049;BME280;5577;42.706;23.160;2023-02-20T10:56:54;94690.56;;;19.72;30.19
11049;BME280;5577;42.706;23.160;2023-02-20T11:00:10;94702.66;;;20.22;29.70
11049;BME280;5577;42.706;23.160;2023-02-20T11:03:00;94699.91;;;18.87;30.52
11049;BME280;5577;42.706;23.160;2023-02-20T11:05:51;94697.97;;;18.98;30.94
11049;BME280;5577;42.706;23.160;2023-02-20T11:08:36;94690.16;;;19.77;29.74
11049;BME280;5577;42.706;23.160;2023-02-20T11:11:41;94698.47;;;20.07;29.99
11049;BME280;5577;42.706;23.160;2023-02-20T11:14:40;94701.59;;;20.67;29.49
11049;BME280;5577;42.706;23.160;2023-02-20T11:17:28;94697.56;;;19.45;30.35
11049;BME280;5577;42.706;23.160;2023-02-20T11:23:40;94689.72;;;20.61;28.65
11049;BME280;5577;42.706;23.160;2023-02-20T11:26:34;94673.53;;;20.07;28.78
11049;BME280;5577;42.706;23.160;2023-02-20T11:29:19;94674.41;;;19.79;28.97
11049;BME280;5577;42.706;23.160;2023-02-20T11:32:28;94704.31;;;19.88;29.10
11049;BME280;5577;42.706;23.160;2023-02-20T11:41:06;94700.38;;;20.10;28.72
11049;BME280;5577;42.706;23.160;2023-02-20T11:50:10;94723.97;;;18.34;30.65
11049;BME280;5577;42.706;23.160;2023-02-20T11:52:58;94734.69;;;17.45;31.93
11049;BME280;5577;42.706;23.160;2023-02-20T11:55:42;94723.47;;;17.26;32.56
11049;BME280;5577;42.706;23.160;2023-02-20T11:58:27;94722.59;;;16.24;33.15
11049;BME280;5577;42.706;23.160;2023-02-20T12:04:19;94731.72;;;14.14;36.27
11049;BME280;5577;42.706;23.160;2023-02-20T12:13:13;94713.28;;;14.93;36.92
11049;BME280;5577;42.706;23.160;2023-02-20T12:40:36;94693.44;;;20.78;28.22
11049;BME280;5577;42.706;23.160;2023-02-20T12:43:42;94691.75;;;22.09;26.34
11049;BME280;5577;42.706;23.160;2023-02-20T13:01:18;94652.75;;;21.53;26.87
11049;BME280;5577;42.706;23.160;2023-02-20T13:04:24;94662.69;;;20.79;27.59
11049;BME280;5577;42.706;23.160;2023-02-20T13:07:36;94663.06;;;20.77;28.06
11049;BME280;5577;42.706;23.160;2023-02-20T13:10:31;94672.63;;;21.66;26.99
11049;BME280;5577;42.706;23.160;2023-02-20T13:13:16;94675.84;;;22.18;26.64
11049;BME280;5577;42.706;23.160;2023-02-20T13:16:40;94659.19;;;21.63;27.41
11049;BME280;5577;42.706;23.160;2023-02-20T13:22:24;94690.81;;;22.22;26.26
11049;BME280;5577;42.706;23.160;2023-02-20T13:28:34;94690.56;;;24.01;24.81
11049;BME280;5577;42.706;23.160;2023-02-20T13:37:02;94674.09;;;22.61;25.41
11049;BME280;5577;42.706;23.160;2023-02-20T13:39:47;94676.63;;;23.64;25.19
11049;BME280;5577;42.706;23.160;2023-02-20T13:42:32;94682.91;;;24.51;24.29
11049;BME280;5577;42.706;23.160;2023-02-20T13:45:39;94672.13;;;20.50;27.69
11049;BME280;5577;42.706;23.160;2023-02-20T13:54:11;94716.13;;;20.12;28.48
11049;BME280;5577;42.706;23.160;2023-02-20T13:56:58;94732.28;;;16.35;33.78
11049;BME280;5577;42.706;23.160;2023-02-20T13:59:48;94726.28;;;14.26;37.70
11049;BME280;5577;42.706;23.160;2023-02-20T14:02:39;94723.56;;;14.46;38.17
11049;BME280;5577;42.706;23.160;2023-02-20T14:05:30;94722.63;;;15.32;36.59
11049;BME280;5577;42.706;23.160;2023-02-20T14:08:17;94704.25;;;15.27;36.80
11049;BME280;5577;42.706;23.160;2023-02-20T14:11:25;94689.81;;;15.90;36.15
11049;BME280;5577;42.706;23.160;2023-02-20T14:17:15;94697.53;;;15.99;36.45
11049;BME280;5577;42.706;23.160;2023-02-20T14:20:02;94711.91;;;16.60;35.42
11049;BME280;5577;42.706;23.160;2023-02-20T14:22:46;94706.69;;;17.36;34.35
11049;BME280;5577;42.706;23.160;2023-02-20T14:25:31;94716.94;;;17.23;34.53
11049;BME280;5577;42.706;23.160;2023-02-20T14:28:15;94716.28;;;16.82;34.59
11049;BME280;5577;42.706;23.160;2023-02-20T14:34:11;94733.56;;;16.48;35.23
11049;BME280;5577;42.706;23.160;2023-02-20T14:40:16;94713.88;;;15.61;36.77
11049;BME280;5577;42.706;23.160;2023-02-20T14:43:03;94691.22;;;15.81;36.40
11049;BME280;5577;42.706;23.160;2023-02-20T14:46:06;94685.50;;;14.94;37.89
11049;BME280;5577;42.706;23.160;2023-02-20T14:49:09;94685.25;;;14.54;38.83
11049;BME280;5577;42.706;23.160;2023-02-20T14:52:13;94693.56;;;14.49;39.24
11049;BME280;5577;42.706;23.160;2023-02-20T14:55:03;94716.84;;;13.34;40.51
11049;BME280;5577;42.706;23.160;2023-02-20T14:57:48;94727.91;;;12.55;42.63
11049;BME280;5577;42.706;23.160;2023-02-20T15:00:37;94740.59;;;12.03;43.84
11049;BME280;5577;42.706;23.160;2023-02-20T15:03:27;94744.16;;;11.79;44.62
11049;BME280;5577;42.706;23.160;2023-02-20T15:06:13;94762.31;;;11.65;45.28
11049;BME280;5577;42.706;23.160;2023-02-20T15:08:59;94763.88;;;11.54;45.92
11049;BME280;5577;42.706;23.160;2023-02-20T15:11:56;94761.47;;;11.37;46.72
11049;BME280;5577;42.706;23.160;2023-02-20T15:14:42;94772.53;;;11.27;47.24
11049;BME280;5577;42.706;23.160;2023-02-20T15:17:29;94749.13;;;11.29;47.23
11049;BME280;5577;42.706;23.160;2023-02-20T15:23:27;94737.56;;;11.09;48.27
11049;BME280;5577;42.706;23.160;2023-02-20T15:29:25;94752.03;;;10.64;50.12
11049;BME280;5577;42.706;23.160;2023-02-20T15:32:37;94755.47;;;10.52;50.98
11049;BME280;5577;42.706;23.160;2023-02-20T15:35:28;94766.16;;;10.44;51.41
11049;BME280;5577;42.706;23.160;2023-02-20T15:38:13;94761.06;;;10.27;51.92
11049;BME280;5577;42.706;23.160;2023-02-20T15:40:59;94718.19;;;10.01;52.17
11049;BME280;5577;42.706;23.160;2023-02-20T15:43:43;94766.88;;;10.20;52.54
11049;BME280;5577;42.706;23.160;2023-02-20T15:46:27;94773.03;;;10.12;53.37
11049;BME280;5577;42.706;23.160;2023-02-20T15:49:11;94774.06;;;10.20;53.42
11049;BME280;5577;42.706;23.160;2023-02-20T15:51:56;94774.06;;;9.99;54.20
11049;BME280;5577;42.706;23.160;2023-02-20T15:54:40;94767.31;;;9.90;54.54
11049;BME280;5577;42.706;23.160;2023-02-20T15:57:24;94759.78;;;9.80;55.46
11049;BME280;5577;42.706;23.160;2023-02-20T16:00:18;94742.84;;;9.60;56.35
11049;BME280;5577;42.706;23.160;2023-02-20T16:03:02;94746.78;;;9.54;56.77
11049;BME280;5577;42.706;23.160;2023-02-20T16:05:47;94744.97;;;9.46;57.27
11049;BME280;5577;42.706;23.160;2023-02-20T16:08:31;94732.16;;;9.36;57.83
11049;BME280;5577;42.706;23.160;2023-02-20T16:11:16;94759.88;;;9.30;58.18
11049;BME280;5577;42.706;23.160;2023-02-20T16:14:01;94751.88;;;9.18;58.47
11049;BME280;5577;42.706;23.160;2023-02-20T16:16:49;94759.47;;;9.20;58.94
11049;BME280;5577;42.706;23.160;2023-02-20T16:19:34;94746.97;;;9.08;59.48
11049;BME280;5577;42.706;23.160;2023-02-20T16:22:19;94752.16;;;8.96;60.51
11049;BME280;5577;42.706;23.160;2023-02-20T16:25:04;94738.91;;;8.84;61.30
11049;BME280;5577;42.706;23.160;2023-02-20T16:27:51;94742.19;;;8.81;61.42
11049;BME280;5577;42.706;23.160;2023-02-20T16:30:38;94756.84;;;8.70;62.37
11049;BME280;5577;42.706;23.160;2023-02-20T16:33:23;94761.06;;;8.62;63.11
11049;BME280;5577;42.706;23.160;2023-02-20T16:36:08;94755.66;;;8.59;63.30
11049;BME280;5577;42.706;23.160;2023-02-20T16:38:52;94764.19;;;8.56;64.00
11049;BME280;5577;42.706;23.160;2023-02-20T16:41:36;94761.91;;;8.46;64.29
11049;BME280;5577;42.706;23.160;2023-02-20T16:44:34;94754.00;;;8.46;64.80
11049;BME280;5577;42.706;23.160;2023-02-20T16:47:25;94764.25;;;8.39;65.32
11049;BME280;5577;42.706;23.160;2023-02-20T16:50:14;94763.66;;;8.33;65.97
11049;BME280;5577;42.706;23.160;2023-02-20T16:52:59;94771.59;;;8.25;66.74
11049;BME280;5577;42.706;23.160;2023-02-20T16:55:49;94779.31;;;8.30;66.79
11049;BME280;5577;42.706;23.160;2023-02-20T16:58:34;94777.97;;;8.24;67.56
11049;BME280;5577;42.706;23.160;2023-02-20T17:01:18;94772.69;;;8.24;67.66
11049;BME280;5577;42.706;23.160;2023-02-20T17:04:02;94790.50;;;8.18;67.80
11049;BME280;5577;42.706;23.160;2023-02-20T17:06:46;94783.69;;;8.09;68.86
11049;BME280;5577;42.706;23.160;2023-02-20T17:09:30;94783.56;;;8.05;69.33
11049;BME280;5577;42.706;23.160;2023-02-20T17:12:18;94785.72;;;8.03;69.74
11049;BME280;5577;42.706;23.160;2023-02-20T17:15:06;94790.56;;;8.01;70.25
11049;BME280;5577;42.706;23.160;2023-02-20T17:17:51;94793.81;;;7.98;70.36
11049;BME280;5577;42.706;23.160;2023-02-20T17:20:36;94794.13;;;7.97;70.86